createdAt,value
2022-10-31T00:00:19.409Z,51.79
2022-10-31T00:00:54.377Z,51.53
2022-10-31T00:01:30.535Z,51.57
2022-10-31T00:02:02.766Z,51.52
2022-10-31T00:02:37.669Z,51.74
2022-10-31T00:03:09.992Z,51.52
2022-10-31T00:03:42.304Z,51.35
2022-10-31T00:04:17.078Z,51.44
2022-10-31T00:04:49.312Z,51.71
2022-10-31T00:05:22.135Z,51.78
2022-10-31T00:05:54.723Z,51.52
2022-10-31T00:06:29.781Z,51.49
2022-10-31T00:07:01.971Z,51.35
2022-10-31T00:07:34.148Z,51.49
2022-10-31T00:08:06.429Z,51.70
2022-10-31T00:08:41.239Z,51.70
2022-10-31T00:09:13.667Z,51.72
2022-10-31T00:09:45.861Z,51.56
2022-10-31T00:10:20.733Z,51.47
2022-10-31T00:10:52.954Z,51.28
2022-10-31T00:11:25.498Z,51.23
2022-10-31T00:12:00.307Z,51.29
2022-10-31T00:12:32.585Z,51.73
2022-10-31T00:13:04.799Z,51.35
2022-10-31T00:13:39.668Z,51.26
2022-10-31T00:14:11.882Z,51.63
2022-10-31T00:14:44.063Z,51.57
2022-10-31T00:15:19.013Z,51.38
2022-10-31T00:15:51.186Z,51.39
2022-10-31T00:16:25.003Z,51.57
2022-10-31T00:17:02.431Z,51.64
2022-10-31T00:17:37.031Z,51.22
2022-10-31T00:18:10.282Z,51.30
2022-10-31T00:18:45.096Z,51.47
2022-10-31T00:19:18.346Z,51.67
2022-10-31T00:19:50.563Z,51.41
2022-10-31T00:20:25.423Z,51.64
2022-10-31T00:21:01.363Z,51.47
2022-10-31T00:21:33.982Z,51.71
2022-10-31T00:22:08.805Z,51.69
2022-10-31T00:22:40.994Z,51.69
2022-10-31T00:23:13.212Z,51.44
2022-10-31T00:23:48.016Z,51.54
2022-10-31T00:24:20.215Z,51.57
2022-10-31T00:24:52.390Z,51.09
2022-10-31T00:25:27.276Z,51.35
2022-10-31T00:26:04.538Z,51.62
2022-10-31T00:26:39.422Z,51.26
2022-10-31T00:27:11.656Z,51.18
2022-10-31T00:27:43.871Z,51.65
2022-10-31T00:29:11.934Z,51.37
2022-10-31T00:29:46.712Z,51.31
2022-10-31T00:30:18.922Z,51.57
2022-10-31T00:30:51.114Z,51.13
2022-10-31T00:31:25.915Z,51.16
2022-10-31T00:32:00.737Z,51.59
2022-10-31T00:32:36.250Z,51.58
2022-10-31T00:33:08.967Z,51.19
2022-10-31T00:33:43.255Z,51.33
2022-10-31T00:34:18.064Z,51.34
2022-10-31T00:34:50.253Z,51.26
2022-10-31T00:35:23.027Z,51.45
2022-10-31T00:35:55.943Z,51.51
2022-10-31T00:36:30.799Z,51.32
2022-10-31T00:37:02.983Z,51.40
2022-10-31T00:37:35.190Z,51.16
2022-10-31T00:38:10.167Z,51.16
2022-10-31T00:38:42.710Z,51.04
2022-10-31T00:39:15.078Z,51.11
2022-10-31T00:39:50.659Z,51.02
2022-10-31T00:40:22.899Z,51.06
2022-10-31T00:40:55.090Z,51.30
2022-10-31T00:41:30.154Z,51.48
2022-10-31T00:42:02.344Z,51.18
2022-10-31T00:42:34.548Z,51.12
2022-10-31T00:43:06.777Z,51.45
2022-10-31T00:43:41.670Z,51.25
2022-10-31T00:44:14.693Z,51.07
2022-10-31T00:44:46.887Z,51.46
2022-10-31T00:45:21.735Z,51.04
2022-10-31T00:45:53.926Z,51.04
2022-10-31T00:46:26.533Z,51.23
2022-10-31T00:47:03.942Z,51.19
2022-10-31T00:47:36.171Z,51.40
2022-10-31T00:48:08.398Z,51.30
2022-10-31T00:48:43.302Z,51.35
2022-10-31T00:49:15.695Z,51.07
2022-10-31T00:49:47.913Z,51.19
2022-10-31T00:50:20.123Z,51.44
2022-10-31T00:50:54.950Z,51.25
2022-10-31T00:51:28.770Z,51.07
2022-10-31T00:52:01.015Z,51.51
2022-10-31T00:52:35.962Z,51.48
2022-10-31T00:53:08.573Z,51.27
2022-10-31T00:53:40.876Z,51.16
2022-10-31T00:54:15.759Z,51.41
2022-10-31T00:54:48.547Z,51.35
2022-10-31T00:55:20.770Z,51.04
2022-10-31T00:55:53.030Z,51.47
2022-10-31T00:56:27.858Z,51.50
2022-10-31T00:57:00.122Z,51.07
2022-10-31T00:57:32.563Z,51.27
2022-10-31T00:58:08.045Z,51.30
2022-10-31T00:58:40.290Z,51.54
2022-10-31T00:59:13.248Z,51.09
2022-10-31T00:59:48.164Z,50.96
2022-10-31T01:00:20.590Z,51.42
2022-10-31T01:00:56.462Z,51.14
2022-10-31T01:01:31.863Z,51.44
2022-10-31T01:02:06.977Z,51.30
2022-10-31T01:02:39.521Z,51.19
2022-10-31T01:03:12.130Z,51.39
2022-10-31T01:03:49.847Z,51.17
2022-10-31T01:04:22.175Z,51.05
2022-10-31T01:04:55.177Z,51.28
2022-10-31T01:05:30.076Z,51.25
2022-10-31T01:06:03.833Z,51.21
2022-10-31T01:06:38.366Z,51.13
2022-10-31T01:07:13.341Z,51.11
2022-10-31T01:07:45.565Z,51.09
2022-10-31T01:08:17.787Z,51.63
2022-10-31T01:08:52.599Z,51.26
2022-10-31T01:09:24.811Z,51.35
2022-10-31T01:09:57.055Z,51.43
2022-10-31T01:10:31.888Z,51.16
2022-10-31T01:11:07.487Z,51.47
2022-10-31T01:11:39.724Z,51.13
2022-10-31T01:12:16.512Z,51.22
2022-10-31T01:12:49.611Z,51.07
2022-10-31T01:14:16.554Z,51.12
2022-10-31T01:14:48.810Z,51.07
2022-10-31T01:15:24.461Z,51.07
2022-10-31T01:15:56.932Z,51.14
2022-10-31T01:16:32.551Z,51.34
2022-10-31T01:17:07.371Z,51.30
2022-10-31T01:17:39.739Z,51.32
2022-10-31T01:18:11.934Z,51.33
2022-10-31T01:18:47.006Z,51.11
2022-10-31T01:19:20.914Z,51.14
2022-10-31T01:19:53.124Z,51.16
2022-10-31T01:20:25.359Z,51.11
2022-10-31T01:21:03.643Z,51.12
2022-10-31T01:21:35.867Z,51.33
2022-10-31T01:22:08.069Z,51.02
2022-10-31T01:22:42.870Z,51.13
2022-10-31T01:23:15.083Z,51.03
2022-10-31T01:23:47.546Z,51.03
2022-10-31T01:24:22.335Z,51.09
2022-10-31T01:24:54.564Z,51.35
2022-10-31T01:25:26.801Z,51.34
2022-10-31T01:26:08.743Z,51.12
2022-10-31T01:26:43.554Z,51.38
2022-10-31T01:27:15.752Z,51.39
2022-10-31T01:27:48.001Z,51.27
2022-10-31T01:28:20.259Z,51.35
2022-10-31T01:28:56.772Z,51.49
2022-10-31T01:29:28.964Z,51.02
2022-10-31T01:30:01.180Z,51.04
2022-10-31T01:30:36.063Z,51.26
2022-10-31T01:31:09.938Z,51.32
2022-10-31T01:31:42.213Z,51.17
2022-10-31T01:32:19.908Z,51.47
2022-10-31T01:32:52.152Z,51.06
2022-10-31T01:33:24.407Z,51.25
2022-10-31T01:33:59.462Z,50.91
2022-10-31T01:34:31.791Z,51.08
2022-10-31T01:35:04.470Z,51.11
2022-10-31T01:35:36.696Z,51.00
2022-10-31T01:36:20.020Z,51.17
2022-10-31T01:36:55.315Z,51.28
2022-10-31T01:37:28.358Z,51.26
2022-10-31T01:38:03.850Z,51.04
2022-10-31T01:38:36.081Z,51.34
2022-10-31T01:39:10.668Z,51.47
2022-10-31T01:39:45.547Z,51.33
2022-10-31T01:40:18.020Z,51.42
2022-10-31T01:40:50.253Z,51.19
2022-10-31T01:41:26.891Z,51.20
2022-10-31T01:41:59.099Z,51.28
2022-10-31T01:42:31.409Z,51.38
2022-10-31T01:43:03.607Z,50.95
2022-10-31T01:43:50.179Z,51.13
2022-10-31T01:44:52.785Z,51.04
2022-10-31T01:45:27.603Z,51.41
2022-10-31T01:45:59.973Z,51.32
2022-10-31T01:46:36.156Z,51.10
2022-10-31T01:47:14.423Z,51.30
2022-10-31T01:47:49.812Z,50.85
2022-10-31T01:48:32.331Z,50.91
2022-10-31T01:49:12.427Z,51.21
2022-10-31T01:49:47.579Z,50.88
2022-10-31T01:50:29.015Z,51.02
2022-10-31T01:51:05.941Z,51.26
2022-10-31T01:51:42.446Z,50.92
2022-10-31T01:52:20.100Z,51.01
2022-10-31T01:52:55.187Z,51.20
2022-10-31T01:53:27.416Z,51.28
2022-10-31T01:54:02.579Z,51.28
2022-10-31T01:54:41.287Z,51.30
2022-10-31T01:55:18.983Z,51.33
2022-10-31T01:55:51.303Z,51.25
2022-10-31T01:56:23.762Z,50.95
2022-10-31T01:57:00.425Z,51.04
2022-10-31T01:57:34.112Z,51.21
2022-10-31T01:58:09.062Z,51.11
2022-10-31T01:58:44.121Z,50.99
2022-10-31T01:59:18.680Z,51.23
2022-10-31T01:59:53.646Z,51.17
2022-10-31T02:00:28.438Z,51.17
2022-10-31T02:01:04.951Z,51.04
2022-10-31T02:01:40.073Z,51.27
2022-10-31T02:02:15.681Z,51.01
2022-10-31T02:02:51.132Z,50.90
2022-10-31T02:03:24.223Z,50.69
2022-10-31T02:03:59.500Z,50.79
2022-10-31T02:04:31.710Z,51.00
2022-10-31T02:05:08.197Z,50.67
2022-10-31T02:05:43.406Z,51.21
2022-10-31T02:06:23.045Z,50.73
2022-10-31T02:06:57.954Z,51.11
2022-10-31T02:07:37.918Z,50.94
2022-10-31T02:08:13.765Z,50.95
2022-10-31T02:08:49.090Z,50.96
2022-10-31T02:09:24.512Z,50.71
2022-10-31T02:09:58.436Z,51.11
2022-10-31T02:10:34.844Z,50.97
2022-10-31T02:11:07.342Z,51.00
2022-10-31T02:11:39.865Z,50.78
2022-10-31T02:12:12.306Z,50.77
2022-10-31T02:12:47.745Z,50.95
2022-10-31T02:13:21.555Z,50.72
2022-10-31T02:13:55.811Z,50.56
2022-10-31T02:14:33.379Z,50.61
2022-10-31T02:15:07.322Z,50.88
2022-10-31T02:15:40.152Z,50.94
2022-10-31T02:16:15.080Z,51.00
2022-10-31T02:16:47.287Z,50.91
2022-10-31T02:17:19.511Z,51.03
2022-10-31T02:17:57.335Z,51.01
2022-10-31T02:18:30.955Z,50.66
2022-10-31T02:19:04.028Z,50.92
2022-10-31T02:19:47.827Z,50.80
2022-10-31T02:20:22.126Z,51.11
2022-10-31T02:21:02.751Z,51.02
2022-10-31T02:21:41.063Z,50.95
2022-10-31T02:22:19.151Z,50.95
2022-10-31T02:23:45.205Z,50.75
2022-10-31T02:24:39.642Z,50.73
2022-10-31T02:25:27.175Z,50.63
2022-10-31T02:26:29.663Z,50.95
2022-10-31T02:27:25.894Z,51.09
2022-10-31T02:28:35.805Z,51.17
2022-10-31T02:29:26.568Z,50.89
2022-10-31T02:30:08.837Z,51.05
2022-10-31T02:30:58.926Z,50.86
2022-10-31T02:31:35.877Z,52.23
2022-10-31T02:32:11.187Z,52.13
2022-10-31T02:32:55.663Z,51.79
2022-10-31T02:33:32.086Z,51.58
2022-10-31T02:34:09.660Z,51.58
2022-10-31T02:34:48.111Z,51.54
2022-10-31T02:35:29.597Z,51.30
2022-10-31T02:36:09.024Z,50.80
2022-10-31T02:36:45.224Z,50.47
2022-10-31T02:37:24.434Z,50.54
2022-10-31T02:38:04.173Z,50.67
2022-10-31T02:38:44.644Z,50.59
2022-10-31T02:39:25.639Z,50.02
2022-10-31T02:40:09.817Z,50.00
2022-10-31T02:41:05.983Z,49.61
2022-10-31T02:42:06.917Z,49.72
2022-10-31T02:42:45.690Z,49.65
2022-10-31T02:43:21.384Z,49.50
2022-10-31T02:44:04.919Z,49.67
2022-10-31T02:44:39.690Z,49.65
2022-10-31T02:45:16.052Z,49.29
2022-10-31T02:45:55.112Z,49.25
2022-10-31T02:46:36.470Z,49.40
2022-10-31T02:47:17.211Z,49.17
2022-10-31T02:47:50.674Z,49.23
2022-10-31T02:48:26.707Z,49.15
2022-10-31T02:49:06.339Z,49.01
2022-10-31T02:49:43.924Z,49.17
2022-10-31T02:50:19.900Z,48.83
2022-10-31T02:50:58.968Z,49.07
2022-10-31T02:51:31.188Z,49.07
2022-10-31T02:52:03.406Z,48.71
2022-10-31T02:52:36.334Z,49.04
2022-10-31T02:53:12.532Z,48.93
2022-10-31T02:53:44.786Z,48.94
2022-10-31T02:54:21.199Z,48.54
2022-10-31T02:55:00.408Z,48.56
2022-10-31T02:55:58.099Z,48.71
2022-10-31T02:56:30.312Z,48.81
2022-10-31T02:57:08.213Z,48.61
2022-10-31T02:57:41.595Z,48.54
2022-10-31T02:58:16.353Z,48.77
2022-10-31T02:58:55.962Z,48.32
2022-10-31T02:59:31.808Z,48.33
2022-10-31T03:00:06.710Z,48.56
2022-10-31T03:00:47.111Z,48.71
2022-10-31T03:01:29.689Z,48.41
2022-10-31T03:02:16.213Z,48.67
2022-10-31T03:02:58.967Z,48.55
2022-10-31T03:03:34.318Z,48.74
2022-10-31T03:04:30.562Z,48.33
2022-10-31T03:05:38.857Z,48.71
2022-10-31T03:06:19.724Z,48.20
2022-10-31T03:06:56.953Z,48.42
2022-10-31T03:07:34.294Z,48.40
2022-10-31T03:08:13.913Z,48.50
2022-10-31T03:08:52.122Z,48.40
2022-10-31T03:09:26.737Z,48.68
2022-10-31T03:10:08.558Z,48.36
2022-10-31T03:10:46.483Z,48.41
2022-10-31T03:11:20.114Z,48.21
2022-10-31T03:12:02.387Z,48.61
2022-10-31T03:12:43.185Z,48.36
2022-10-31T03:13:26.175Z,48.16
2022-10-31T03:14:01.928Z,48.60
2022-10-31T03:14:40.376Z,48.74
2022-10-31T03:15:19.080Z,48.54
2022-10-31T03:15:53.289Z,48.16
2022-10-31T03:16:29.217Z,48.46
2022-10-31T03:17:06.252Z,48.29
2022-10-31T03:17:49.919Z,48.46
2022-10-31T03:18:26.599Z,48.59
2022-10-31T03:19:05.895Z,48.32
2022-10-31T03:19:41.523Z,48.49
2022-10-31T03:20:13.721Z,48.34
2022-10-31T03:20:55.635Z,48.38
2022-10-31T03:21:30.041Z,48.14
2022-10-31T03:22:06.627Z,48.23
2022-10-31T03:22:43.671Z,48.36
2022-10-31T03:23:17.671Z,48.59
2022-10-31T03:23:55.603Z,48.09
2022-10-31T03:24:41.562Z,48.43
2022-10-31T03:25:14.935Z,48.12
2022-10-31T03:25:48.338Z,48.48
2022-10-31T03:26:24.091Z,48.32
2022-10-31T03:26:58.716Z,48.50
2022-10-31T03:27:34.270Z,48.36
2022-10-31T03:28:10.202Z,48.19
2022-10-31T03:28:45.359Z,48.39
2022-10-31T03:29:22.023Z,48.11
2022-10-31T03:29:59.330Z,48.34
2022-10-31T03:30:35.387Z,48.31
2022-10-31T03:31:08.253Z,48.07
2022-10-31T03:31:49.850Z,48.22
2022-10-31T03:32:24.875Z,48.19
2022-10-31T03:33:04.514Z,48.15
2022-10-31T03:33:41.005Z,48.33
2022-10-31T03:34:13.995Z,48.17
2022-10-31T03:34:47.130Z,48.28
2022-10-31T03:35:25.330Z,48.81
2022-10-31T03:35:58.899Z,48.30
2022-10-31T03:36:32.052Z,48.36
2022-10-31T03:37:09.354Z,48.57
2022-10-31T03:37:42.163Z,48.33
2022-10-31T03:38:21.694Z,48.26
2022-10-31T03:38:57.113Z,48.50
2022-10-31T03:39:29.950Z,48.51
2022-10-31T03:40:04.888Z,48.04
2022-10-31T03:40:39.856Z,48.12
2022-10-31T03:41:18.054Z,48.23
2022-10-31T03:41:54.806Z,48.31
2022-10-31T03:42:28.888Z,48.14
2022-10-31T03:43:09.980Z,48.14
2022-10-31T03:43:44.551Z,48.13
2022-10-31T03:44:20.767Z,48.09
2022-10-31T03:45:07.779Z,48.33
2022-10-31T03:45:43.295Z,48.30
2022-10-31T03:46:18.227Z,48.28
2022-10-31T03:46:50.646Z,48.12
2022-10-31T03:47:23.039Z,48.43
2022-10-31T03:47:58.589Z,48.06
2022-10-31T03:48:33.710Z,48.29
2022-10-31T03:49:06.310Z,48.48
2022-10-31T03:49:42.835Z,48.12
2022-10-31T03:50:15.941Z,48.16
2022-10-31T03:50:53.018Z,48.39
2022-10-31T03:51:30.554Z,48.48
2022-10-31T03:52:10.471Z,48.36
2022-10-31T03:52:45.046Z,48.00
2022-10-31T03:53:24.659Z,48.48
2022-10-31T03:54:00.888Z,48.27
2022-10-31T03:54:37.491Z,48.58
2022-10-31T03:55:16.001Z,48.46
2022-10-31T03:55:50.995Z,48.44
2022-10-31T03:56:29.318Z,47.92
2022-10-31T03:57:09.102Z,48.36
2022-10-31T03:57:46.534Z,48.17
2022-10-31T03:58:23.132Z,48.28
2022-10-31T03:59:02.820Z,48.34
2022-10-31T03:59:38.911Z,48.28
2022-10-31T04:00:13.500Z,48.08
2022-10-31T04:00:52.616Z,48.09
2022-10-31T04:01:28.267Z,47.91
2022-10-31T04:02:03.573Z,48.33
2022-10-31T04:02:40.441Z,48.02
2022-10-31T04:03:17.779Z,47.80
2022-10-31T04:03:55.014Z,48.25
2022-10-31T04:04:28.093Z,48.02
2022-10-31T04:05:03.471Z,48.24
2022-10-31T04:05:37.093Z,47.78
2022-10-31T04:06:11.142Z,47.97
2022-10-31T04:06:48.648Z,47.93
2022-10-31T04:07:21.735Z,47.90
2022-10-31T04:07:57.150Z,48.11
2022-10-31T04:08:34.404Z,48.20
2022-10-31T04:09:07.259Z,48.16
2022-10-31T04:09:44.041Z,47.98
2022-10-31T04:10:21.127Z,47.83
2022-10-31T04:10:54.195Z,47.99
2022-10-31T04:11:28.996Z,47.82
2022-10-31T04:12:24.851Z,47.97
2022-10-31T04:14:20.164Z,47.76
2022-10-31T04:14:53.023Z,47.79
2022-10-31T04:15:25.612Z,47.98
2022-10-31T04:16:00.706Z,47.73
2022-10-31T04:16:34.566Z,47.75
2022-10-31T04:17:10.524Z,47.80
2022-10-31T04:17:49.685Z,48.09
2022-10-31T04:18:24.245Z,47.84
2022-10-31T04:19:01.710Z,48.10
2022-10-31T04:19:34.106Z,47.90
2022-10-31T04:20:08.012Z,48.25
2022-10-31T04:20:45.001Z,48.05
2022-10-31T04:21:18.435Z,48.25
2022-10-31T04:21:50.648Z,48.24
2022-10-31T04:22:25.537Z,48.31
2022-10-31T04:22:58.448Z,48.07
2022-10-31T04:23:32.039Z,48.24
2022-10-31T04:24:09.108Z,48.08
2022-10-31T04:24:42.384Z,48.23
2022-10-31T04:25:17.019Z,48.12
2022-10-31T04:25:51.872Z,47.88
2022-10-31T04:26:24.376Z,48.24
2022-10-31T04:26:57.179Z,48.17
2022-10-31T04:27:32.630Z,47.97
2022-10-31T04:28:05.419Z,47.97
2022-10-31T04:28:37.831Z,48.24
2022-10-31T04:29:12.714Z,48.11
2022-10-31T04:29:46.925Z,47.88
2022-10-31T04:30:22.599Z,47.97
2022-10-31T04:30:57.748Z,48.11
2022-10-31T04:31:30.046Z,47.88
2022-10-31T04:32:03.002Z,47.89
2022-10-31T04:32:37.800Z,48.24
2022-10-31T04:33:10.169Z,48.31
2022-10-31T04:33:42.783Z,48.33
2022-10-31T04:34:20.442Z,48.10
2022-10-31T04:34:52.680Z,48.30
2022-10-31T04:35:25.298Z,47.98
2022-10-31T04:36:01.071Z,47.95
2022-10-31T04:36:35.882Z,48.36
2022-10-31T04:37:08.122Z,48.07
2022-10-31T04:37:40.595Z,48.38
2022-10-31T04:38:15.468Z,48.37
2022-10-31T04:38:49.191Z,48.12
2022-10-31T04:39:38.370Z,47.88
2022-10-31T04:40:41.805Z,48.00
2022-10-31T04:41:19.670Z,48.12
2022-10-31T04:42:04.358Z,48.14
2022-10-31T04:42:37.861Z,48.30
2022-10-31T04:43:11.789Z,48.31
2022-10-31T04:43:47.359Z,48.16
2022-10-31T04:44:19.872Z,48.12
2022-10-31T04:44:56.136Z,48.17
2022-10-31T04:45:31.313Z,47.90
2022-10-31T04:46:03.905Z,47.83
2022-10-31T04:46:36.132Z,48.31
2022-10-31T04:47:11.686Z,48.16
2022-10-31T04:47:43.969Z,47.95
2022-10-31T04:48:16.311Z,48.08
2022-10-31T04:48:53.075Z,47.92
2022-10-31T04:49:27.964Z,47.83
2022-10-31T04:50:00.322Z,47.95
2022-10-31T04:50:35.133Z,48.40
2022-10-31T04:51:07.688Z,48.05
2022-10-31T04:51:40.163Z,48.30
2022-10-31T04:52:17.589Z,48.24
2022-10-31T04:52:49.932Z,47.90
2022-10-31T04:53:28.896Z,47.95
2022-10-31T04:54:27.034Z,48.24
2022-10-31T04:55:34.276Z,47.88
2022-10-31T04:56:21.007Z,47.97
2022-10-31T04:56:56.433Z,48.10
2022-10-31T04:57:31.668Z,47.89
2022-10-31T04:58:07.568Z,48.45
2022-10-31T04:58:40.228Z,48.06
2022-10-31T04:59:17.086Z,47.95
2022-10-31T04:59:55.077Z,47.93
2022-10-31T05:00:29.330Z,48.14
2022-10-31T05:01:04.414Z,47.63
2022-10-31T05:01:38.207Z,46.96
2022-10-31T05:02:10.675Z,46.96
2022-10-31T05:03:07.117Z,47.23
2022-10-31T05:03:45.105Z,47.35
2022-10-31T05:04:17.548Z,47.46
2022-10-31T05:04:58.109Z,47.49
2022-10-31T05:05:32.128Z,47.67
2022-10-31T05:06:09.755Z,47.91
2022-10-31T05:06:43.407Z,48.08
2022-10-31T05:07:16.787Z,48.33
2022-10-31T05:07:53.913Z,48.59
2022-10-31T05:08:30.514Z,48.87
2022-10-31T05:09:06.075Z,48.96
2022-10-31T05:09:40.963Z,48.58
2022-10-31T05:10:15.719Z,48.83
2022-10-31T05:10:53.378Z,49.07
2022-10-31T05:11:25.781Z,49.29
2022-10-31T05:12:05.880Z,49.35
2022-10-31T05:13:04.240Z,49.08
2022-10-31T05:13:55.332Z,49.12
2022-10-31T05:14:55.273Z,49.12
2022-10-31T05:15:45.663Z,49.33
2022-10-31T05:16:41.039Z,49.35
2022-10-31T05:17:36.062Z,49.51
2022-10-31T05:18:35.355Z,49.62
2022-10-31T05:19:19.745Z,49.35
2022-10-31T05:20:25.690Z,49.53
2022-10-31T05:21:30.133Z,49.65
2022-10-31T05:22:11.574Z,49.70
2022-10-31T05:22:44.723Z,49.50
2022-10-31T05:23:20.534Z,49.59
2022-10-31T05:23:56.067Z,49.75
2022-10-31T05:24:30.017Z,49.63
2022-10-31T05:25:05.011Z,49.80
2022-10-31T05:25:40.871Z,49.78
2022-10-31T05:26:14.500Z,50.01
2022-10-31T05:26:49.795Z,50.15
2022-10-31T05:27:25.112Z,49.73
2022-10-31T05:28:06.590Z,50.20
2022-10-31T05:28:41.965Z,50.02
2022-10-31T05:29:14.260Z,50.27
2022-10-31T05:29:48.047Z,49.85
2022-10-31T05:30:26.323Z,50.06
2022-10-31T05:31:00.551Z,50.04
2022-10-31T05:31:41.547Z,50.27
2022-10-31T05:32:21.568Z,50.11
2022-10-31T05:33:17.907Z,49.99
2022-10-31T05:34:08.740Z,49.95
2022-10-31T05:35:00.782Z,50.05
2022-10-31T05:35:56.671Z,50.03
2022-10-31T05:36:56.012Z,50.08
2022-10-31T05:37:30.646Z,50.11
2022-10-31T05:38:05.712Z,49.93
2022-10-31T05:38:39.418Z,50.13
2022-10-31T05:39:20.631Z,50.41
2022-10-31T05:39:55.629Z,50.32
2022-10-31T05:40:29.119Z,50.13
2022-10-31T05:41:05.770Z,50.42
2022-10-31T05:41:40.187Z,50.04
2022-10-31T05:42:22.074Z,49.99
2022-10-31T05:42:55.511Z,50.08
2022-10-31T05:43:30.479Z,49.84
2022-10-31T05:44:02.751Z,50.12
2022-10-31T05:44:37.331Z,50.27
2022-10-31T05:45:20.141Z,50.44
2022-10-31T05:45:58.858Z,50.37
2022-10-31T05:46:55.479Z,50.31
2022-10-31T05:48:09.065Z,50.18
2022-10-31T05:49:02.537Z,50.36
2022-10-31T05:49:53.198Z,50.06
2022-10-31T05:50:46.782Z,50.39
2022-10-31T05:51:21.744Z,50.36
2022-10-31T05:51:54.041Z,50.42
2022-10-31T05:52:34.470Z,50.15
2022-10-31T05:53:16.576Z,50.51
2022-10-31T05:53:53.834Z,50.10
2022-10-31T05:54:30.296Z,50.31
2022-10-31T05:55:10.036Z,50.52
2022-10-31T05:55:49.055Z,50.53
2022-10-31T05:56:25.310Z,50.18
2022-10-31T05:57:00.391Z,50.58
2022-10-31T05:57:33.816Z,50.55
2022-10-31T05:58:08.890Z,50.33
2022-10-31T05:58:44.817Z,50.59
2022-10-31T05:59:17.131Z,50.61
2022-10-31T05:59:55.207Z,50.50
2022-10-31T06:00:29.332Z,50.13
2022-10-31T06:01:12.222Z,50.28
2022-10-31T06:01:44.656Z,50.30
2022-10-31T06:02:35.529Z,50.32
2022-10-31T06:03:33.582Z,50.43
2022-10-31T06:04:08.853Z,50.64
2022-10-31T06:04:42.489Z,50.62
2022-10-31T06:05:18.573Z,50.14
2022-10-31T06:05:55.015Z,50.49
2022-10-31T06:06:36.103Z,50.43
2022-10-31T06:07:08.374Z,50.42
2022-10-31T06:07:40.636Z,50.55
2022-10-31T06:08:17.030Z,50.43
2022-10-31T06:08:50.156Z,50.61
2022-10-31T06:09:26.151Z,50.58
2022-10-31T06:10:01.032Z,50.20
2022-10-31T06:10:34.821Z,50.20
2022-10-31T06:11:10.075Z,50.56
2022-10-31T06:12:05.270Z,50.66
2022-10-31T06:13:03.196Z,50.37
2022-10-31T06:13:41.526Z,50.30
2022-10-31T06:14:21.979Z,50.23
2022-10-31T06:15:02.469Z,50.23
2022-10-31T06:15:34.923Z,50.22
2022-10-31T06:16:07.586Z,50.23
2022-10-31T06:16:48.595Z,50.67
2022-10-31T06:17:39.411Z,50.25
2022-10-31T06:18:34.411Z,50.63
2022-10-31T06:19:06.963Z,50.39
2022-10-31T06:19:40.375Z,50.51
2022-10-31T06:20:16.926Z,50.41
2022-10-31T06:20:59.914Z,50.52
2022-10-31T06:21:34.923Z,50.56
2022-10-31T06:22:07.241Z,50.67
2022-10-31T06:22:42.081Z,50.37
2022-10-31T06:23:14.331Z,50.66
2022-10-31T06:23:49.125Z,50.81
2022-10-31T06:24:44.195Z,50.80
2022-10-31T06:25:42.617Z,50.65
2022-10-31T06:26:19.788Z,50.35
2022-10-31T06:26:52.169Z,50.44
2022-10-31T06:27:24.571Z,50.48
2022-10-31T06:27:59.687Z,50.59
2022-10-31T06:28:40.885Z,50.62
2022-10-31T06:29:30.656Z,50.59
2022-10-31T06:30:16.161Z,50.60
2022-10-31T06:30:53.550Z,50.52
2022-10-31T06:31:27.496Z,50.75
2022-10-31T06:31:59.808Z,50.23
2022-10-31T06:32:34.635Z,50.29
2022-10-31T06:33:06.907Z,50.35
2022-10-31T06:33:45.702Z,50.71
2022-10-31T06:34:18.018Z,50.25
2022-10-31T06:34:50.871Z,50.20
2022-10-31T06:35:25.711Z,50.28
2022-10-31T06:35:58.303Z,50.06
2022-10-31T06:36:30.761Z,50.15
2022-10-31T06:37:09.585Z,50.42
2022-10-31T06:37:46.781Z,50.37
2022-10-31T06:38:35.850Z,50.53
2022-10-31T06:39:10.595Z,50.46
2022-10-31T06:39:43.232Z,50.56
2022-10-31T06:40:19.979Z,50.13
2022-10-31T06:41:24.915Z,50.53
2022-10-31T06:42:01.456Z,50.66
2022-10-31T06:42:35.816Z,50.28
2022-10-31T06:43:08.169Z,50.31
2022-10-31T06:43:43.081Z,50.68
2022-10-31T06:44:33.963Z,50.50
2022-10-31T06:45:32.041Z,50.75
2022-10-31T06:46:19.346Z,50.40
2022-10-31T06:47:14.291Z,50.68
2022-10-31T06:48:16.538Z,50.85
2022-10-31T06:49:12.211Z,50.82
2022-10-31T06:49:52.995Z,50.75
2022-10-31T06:50:28.166Z,50.41
2022-10-31T06:51:03.376Z,50.94
2022-10-31T06:51:36.266Z,50.76
2022-10-31T06:52:13.702Z,50.73
2022-10-31T06:52:51.604Z,50.68
2022-10-31T06:53:23.830Z,50.47
2022-10-31T06:53:58.730Z,50.42
2022-10-31T06:54:32.387Z,50.35
2022-10-31T06:55:05.605Z,50.60
2022-10-31T06:55:42.139Z,50.59
2022-10-31T06:56:14.380Z,50.47
2022-10-31T06:56:51.644Z,50.32
2022-10-31T06:57:26.601Z,50.42
2022-10-31T06:58:02.937Z,50.65
2022-10-31T06:58:36.568Z,50.78
2022-10-31T06:59:13.899Z,50.59
2022-10-31T07:00:12.819Z,50.58
2022-10-31T07:00:57.207Z,50.49
2022-10-31T07:01:29.505Z,50.71
2022-10-31T07:02:02.931Z,50.51
2022-10-31T07:02:37.843Z,50.63
2022-10-31T07:03:12.685Z,50.49
2022-10-31T07:03:47.740Z,50.73
2022-10-31T07:04:20.187Z,50.78
2022-10-31T07:04:53.419Z,50.49
2022-10-31T07:05:26.483Z,50.54
2022-10-31T07:06:01.376Z,50.83
2022-10-31T07:06:33.978Z,50.46
2022-10-31T07:07:08.343Z,50.69
2022-10-31T07:07:47.533Z,50.49
2022-10-31T07:08:19.918Z,50.54
2022-10-31T07:08:53.290Z,50.50
2022-10-31T07:09:28.122Z,50.41
2022-10-31T07:10:02.557Z,50.42
2022-10-31T07:10:56.919Z,50.49
2022-10-31T07:11:30.191Z,50.55
2022-10-31T07:12:04.280Z,50.78
2022-10-31T07:12:42.190Z,50.37
2022-10-31T07:13:15.797Z,50.40
2022-10-31T07:13:58.186Z,50.64
2022-10-31T07:14:30.422Z,50.77
2022-10-31T07:15:05.226Z,50.42
2022-10-31T07:15:38.873Z,50.49
2022-10-31T07:16:14.625Z,50.38
2022-10-31T07:16:50.414Z,50.43
2022-10-31T07:17:29.535Z,50.43
2022-10-31T07:18:07.079Z,50.72
2022-10-31T07:18:40.270Z,50.37
2022-10-31T07:19:13.983Z,50.49
2022-10-31T07:19:49.341Z,50.43
2022-10-31T07:20:24.598Z,50.39
2022-10-31T07:20:59.812Z,50.30
2022-10-31T07:21:32.695Z,50.29
2022-10-31T07:22:09.323Z,50.60
2022-10-31T07:22:59.112Z,50.74
2022-10-31T07:23:31.466Z,50.61
2022-10-31T07:24:29.334Z,50.53
2022-10-31T07:25:20.061Z,50.47
2022-10-31T07:26:14.067Z,50.73
2022-10-31T07:26:50.835Z,50.66
2022-10-31T07:27:23.231Z,50.48
2022-10-31T07:27:58.373Z,50.80
2022-10-31T07:28:31.035Z,50.76
2022-10-31T07:29:05.407Z,50.35
2022-10-31T07:29:40.213Z,50.64
2022-10-31T07:30:14.910Z,50.72
2022-10-31T07:30:51.329Z,50.77
2022-10-31T07:31:29.035Z,50.37
2022-10-31T07:32:06.258Z,50.54
2022-10-31T07:32:41.123Z,50.39
2022-10-31T07:33:16.387Z,50.47
2022-10-31T07:34:07.034Z,50.80
2022-10-31T07:35:11.917Z,50.48
2022-10-31T07:35:56.367Z,50.83
2022-10-31T07:36:36.509Z,50.43
2022-10-31T07:37:09.912Z,50.48
2022-10-31T07:37:44.978Z,50.80
2022-10-31T07:38:20.019Z,50.73
2022-10-31T07:38:52.565Z,50.72
2022-10-31T07:39:25.385Z,50.57
2022-10-31T07:40:00.878Z,50.83
2022-10-31T07:40:33.104Z,50.78
2022-10-31T07:41:08.268Z,50.75
2022-10-31T07:41:45.588Z,50.87
2022-10-31T07:42:17.792Z,50.44
2022-10-31T07:42:56.314Z,50.80
2022-10-31T07:43:46.992Z,50.75
2022-10-31T07:44:24.955Z,50.82
2022-10-31T07:45:32.064Z,50.93
2022-10-31T07:46:33.187Z,50.65
2022-10-31T07:47:23.870Z,50.88
2022-10-31T07:48:08.155Z,51.00
2022-10-31T07:49:01.891Z,50.71
2022-10-31T07:49:57.193Z,51.19
2022-10-31T07:51:10.106Z,50.71
2022-10-31T07:52:00.828Z,51.04
2022-10-31T07:53:05.314Z,51.06
2022-10-31T07:54:06.830Z,51.24
2022-10-31T07:54:41.671Z,50.86
2022-10-31T07:55:15.604Z,51.00
2022-10-31T07:55:55.357Z,51.26
2022-10-31T07:56:31.178Z,50.88
2022-10-31T07:57:03.902Z,51.14
2022-10-31T07:57:40.412Z,50.95
2022-10-31T07:58:13.906Z,51.06
2022-10-31T07:58:49.250Z,51.02
2022-10-31T07:59:21.633Z,51.50
2022-10-31T07:59:54.230Z,51.24
2022-10-31T08:00:29.695Z,51.22
2022-10-31T08:01:02.419Z,51.27
2022-10-31T08:01:47.171Z,51.52
2022-10-31T08:02:37.455Z,51.33
2022-10-31T08:03:41.487Z,51.42
2022-10-31T08:04:58.629Z,51.37
2022-10-31T08:06:11.257Z,51.38
2022-10-31T08:07:06.022Z,51.28
2022-10-31T08:07:41.447Z,51.44